sensor_id;sensor_type;location;lat;lon;timestamp;temperature;humidity
19538;DHT22;9914;51.008;4.300;2022-09-02T00:01:28;19.40;99.90
19538;DHT22;9914;51.008;4.300;2022-09-02T00:03:56;19.50;99.90
19538;DHT22;9914;51.008;4.300;2022-09-02T00:06:26;19.30;99.90
19538;DHT22;9914;51.008;4.300;2022-09-02T00:08:52;19.30;99.90
19538;DHT22;9914;51.008;4.300;2022-09-02T00:11:21;19.20;99.90
19538;DHT22;9914;51.008;4.300;2022-09-02T00:14:03;19.30;99.90
19538;DHT22;9914;51.008;4.300;2022-09-02T00:16:30;19.30;99.90
19538;DHT22;9914;51.008;4.300;2022-09-02T00:19:03;19.10;99.90
19538;DHT22;9914;51.008;4.300;2022-09-02T00:21:33;19.10;99.90
19538;DHT22;9914;51.008;4.300;2022-09-02T00:24:03;19.10;99.90
19538;DHT22;9914;51.008;4.300;2022-09-02T00:26:30;19.00;99.90
19538;DHT22;9914;51.008;4.300;2022-09-02T00:28:57;19.00;99.90
19538;DHT22;9914;51.008;4.300;2022-09-02T00:31:24;19.00;99.90
19538;DHT22;9914;51.008;4.300;2022-09-02T00:33:52;19.00;99.90
19538;DHT22;9914;51.008;4.300;2022-09-02T00:36:19;19.00;99.90
19538;DHT22;9914;51.008;4.300;2022-09-02T00:38:48;18.90;99.90
19538;DHT22;9914;51.008;4.300;2022-09-02T00:41:14;18.90;99.90
19538;DHT22;9914;51.008;4.300;2022-09-02T00:43:47;18.70;99.90
19538;DHT22;9914;51.008;4.300;2022-09-02T00:46:17;18.70;99.90
19538;DHT22;9914;51.008;4.300;2022-09-02T00:48:58;18.70;99.90
19538;DHT22;9914;51.008;4.300;2022-09-02T00:51:27;18.70;99.90
19538;DHT22;9914;51.008;4.300;2022-09-02T00:53:57;18.70;99.90
19538;DHT22;9914;51.008;4.300;2022-09-02T00:56:26;18.60;99.90
19538;DHT22;9914;51.008;4.300;2022-09-02T00:58:53;18.70;99.90
19538;DHT22;9914;51.008;4.300;2022-09-02T01:01:20;18.70;99.90
19538;DHT22;9914;51.008;4.300;2022-09-02T01:03:47;18.70;99.90
19538;DHT22;9914;51.008;4.300;2022-09-02T01:06:15;18.70;99.90
19538;DHT22;9914;51.008;4.300;2022-09-02T01:08:47;18.60;99.90
19538;DHT22;9914;51.008;4.300;2022-09-02T01:11:15;18.60;99.90
19538;DHT22;9914;51.008;4.300;2022-09-02T01:13:43;18.50;99.90
19538;DHT22;9914;51.008;4.300;2022-09-02T01:16:45;18.40;99.90
19538;DHT22;9914;51.008;4.300;2022-09-02T01:19:23;18.40;99.90
19538;DHT22;9914;51.008;4.300;2022-09-02T01:21:53;18.40;99.90
19538;DHT22;9914;51.008;4.300;2022-09-02T01:24:20;18.30;99.90
19538;DHT22;9914;51.008;4.300;2022-09-02T01:26:47;18.20;99.90
19538;DHT22;9914;51.008;4.300;2022-09-02T01:29:14;18.20;99.90
19538;DHT22;9914;51.008;4.300;2022-09-02T01:31:41;18.20;99.90
19538;DHT22;9914;51.008;4.300;2022-09-02T01:34:06;18.20;99.90
19538;DHT22;9914;51.008;4.300;2022-09-02T01:36:36;18.20;99.90
19538;DHT22;9914;51.008;4.300;2022-09-02T01:39:02;18.00;99.90
19538;DHT22;9914;51.008;4.300;2022-09-02T01:41:29;18.10;99.90
19538;DHT22;9914;51.008;4.300;2022-09-02T01:43:55;18.20;99.90
19538;DHT22;9914;51.008;4.300;2022-09-02T01:46:21;18.10;99.90
19538;DHT22;9914;51.008;4.300;2022-09-02T01:48:50;18.10;99.90
19538;DHT22;9914;51.008;4.300;2022-09-02T01:51:18;18.10;99.90
19538;DHT22;9914;51.008;4.300;2022-09-02T01:53:45;18.00;99.90
19538;DHT22;9914;51.008;4.300;2022-09-02T01:56:11;17.90;99.90
19538;DHT22;9914;51.008;4.300;2022-09-02T01:58:37;18.00;99.90
19538;DHT22;9914;51.008;4.300;2022-09-02T02:01:03;17.90;99.90
19538;DHT22;9914;51.008;4.300;2022-09-02T02:03:29;18.00;99.90
19538;DHT22;9914;51.008;4.300;2022-09-02T02:05:54;17.80;99.90
19538;DHT22;9914;51.008;4.300;2022-09-02T02:08:21;17.60;99.90
19538;DHT22;9914;51.008;4.300;2022-09-02T02:10:47;17.70;99.90
19538;DHT22;9914;51.008;4.300;2022-09-02T02:13:13;17.90;99.90
19538;DHT22;9914;51.008;4.300;2022-09-02T02:15:41;17.80;99.90
19538;DHT22;9914;51.008;4.300;2022-09-02T02:18:08;17.80;99.90
19538;DHT22;9914;51.008;4.300;2022-09-02T02:20:36;17.90;99.90
19538;DHT22;9914;51.008;4.300;2022-09-02T02:23:03;17.90;99.90
19538;DHT22;9914;51.008;4.300;2022-09-02T02:25:30;17.90;99.90
19538;DHT22;9914;51.008;4.300;2022-09-02T02:27:55;17.80;99.90
19538;DHT22;9914;51.008;4.300;2022-09-02T02:30:21;17.90;99.90
19538;DHT22;9914;51.008;4.300;2022-09-02T02:32:47;17.90;99.90
19538;DHT22;9914;51.008;4.300;2022-09-02T02:35:15;17.90;99.90
19538;DHT22;9914;51.008;4.300;2022-09-02T02:37:41;17.80;99.90
19538;DHT22;9914;51.008;4.300;2022-09-02T02:40:10;17.60;99.90
19538;DHT22;9914;51.008;4.300;2022-09-02T02:42:39;17.60;99.90
19538;DHT22;9914;51.008;4.300;2022-09-02T02:45:08;17.50;99.90
19538;DHT22;9914;51.008;4.300;2022-09-02T02:47:38;17.60;99.90
19538;DHT22;9914;51.008;4.300;2022-09-02T02:50:06;17.70;99.90
19538;DHT22;9914;51.008;4.300;2022-09-02T02:52:32;17.50;99.90
19538;DHT22;9914;51.008;4.300;2022-09-02T02:54:58;17.60;99.90
19538;DHT22;9914;51.008;4.300;2022-09-02T02:57:23;17.70;99.90
19538;DHT22;9914;51.008;4.300;2022-09-02T02:59:50;17.60;99.90
19538;DHT22;9914;51.008;4.300;2022-09-02T03:02:16;17.60;99.90
19538;DHT22;9914;51.008;4.300;2022-09-02T03:04:42;17.50;99.90
19538;DHT22;9914;51.008;4.300;2022-09-02T03:07:10;17.60;99.90
19538;DHT22;9914;51.008;4.300;2022-09-02T03:09:35;17.60;99.90
19538;DHT22;9914;51.008;4.300;2022-09-02T03:12:02;17.60;99.90
19538;DHT22;9914;51.008;4.300;2022-09-02T03:14:28;17.60;99.90
19538;DHT22;9914;51.008;4.300;2022-09-02T03:16:56;17.50;99.90
19538;DHT22;9914;51.008;4.300;2022-09-02T03:19:21;17.60;99.90
19538;DHT22;9914;51.008;4.300;2022-09-02T03:21:47;17.60;99.90
19538;DHT22;9914;51.008;4.300;2022-09-02T03:24:13;17.60;99.90
19538;DHT22;9914;51.008;4.300;2022-09-02T03:26:40;17.60;99.90
19538;DHT22;9914;51.008;4.300;2022-09-02T03:29:06;17.40;99.90
19538;DHT22;9914;51.008;4.300;2022-09-02T03:31:33;17.40;99.90
19538;DHT22;9914;51.008;4.300;2022-09-02T03:34:00;17.30;99.90
19538;DHT22;9914;51.008;4.300;2022-09-02T03:36:29;17.50;99.90
19538;DHT22;9914;51.008;4.300;2022-09-02T03:38:56;17.40;99.90
19538;DHT22;9914;51.008;4.300;2022-09-02T03:41:22;17.20;99.90
19538;DHT22;9914;51.008;4.300;2022-09-02T03:43:48;17.20;99.90
19538;DHT22;9914;51.008;4.300;2022-09-02T03:46:14;17.20;99.90
19538;DHT22;9914;51.008;4.300;2022-09-02T03:48:41;17.10;99.90
19538;DHT22;9914;51.008;4.300;2022-09-02T03:51:08;17.20;99.90
19538;DHT22;9914;51.008;4.300;2022-09-02T03:53:34;17.20;99.90
19538;DHT22;9914;51.008;4.300;2022-09-02T03:56:08;17.10;99.90
19538;DHT22;9914;51.008;4.300;2022-09-02T03:58:36;17.00;99.90
19538;DHT22;9914;51.008;4.300;2022-09-02T04:01:03;16.90;99.90
19538;DHT22;9914;51.008;4.300;2022-09-02T04:03:28;16.90;99.90
19538;DHT22;9914;51.008;4.300;2022-09-02T04:05:54;16.80;99.90
19538;DHT22;9914;51.008;4.300;2022-09-02T04:08:20;16.90;99.90
19538;DHT22;9914;51.008;4.300;2022-09-02T04:10:46;16.80;99.90
19538;DHT22;9914;51.008;4.300;2022-09-02T04:13:12;16.90;99.90
19538;DHT22;9914;51.008;4.300;2022-09-02T04:15:42;16.80;99.90
19538;DHT22;9914;51.008;4.300;2022-09-02T04:18:10;16.80;99.90
19538;DHT22;9914;51.008;4.300;2022-09-02T04:20:41;16.80;99.90
19538;DHT22;9914;51.008;4.300;2022-09-02T04:23:08;16.90;99.90
19538;DHT22;9914;51.008;4.300;2022-09-02T04:25:41;17.10;99.90
19538;DHT22;9914;51.008;4.300;2022-09-02T04:28:08;17.10;99.90
19538;DHT22;9914;51.008;4.300;2022-09-02T04:30:37;17.00;99.90
19538;DHT22;9914;51.008;4.300;2022-09-02T04:33:04;17.00;99.90
19538;DHT22;9914;51.008;4.300;2022-09-02T04:35:30;17.00;99.90
19538;DHT22;9914;51.008;4.300;2022-09-02T04:37:55;17.00;99.90
19538;DHT22;9914;51.008;4.300;2022-09-02T04:40:21;17.10;99.90
19538;DHT22;9914;51.008;4.300;2022-09-02T04:42:48;17.30;99.90
19538;DHT22;9914;51.008;4.300;2022-09-02T04:45:15;17.20;99.90
19538;DHT22;9914;51.008;4.300;2022-09-02T04:47:41;17.10;99.90
19538;DHT22;9914;51.008;4.300;2022-09-02T04:50:10;17.10;99.90
19538;DHT22;9914;51.008;4.300;2022-09-02T04:52:36;17.20;99.90
19538;DHT22;9914;51.008;4.300;2022-09-02T04:55:01;17.20;99.90
19538;DHT22;9914;51.008;4.300;2022-09-02T04:57:28;17.10;99.90
19538;DHT22;9914;51.008;4.300;2022-09-02T04:59:54;17.10;99.90
19538;DHT22;9914;51.008;4.300;2022-09-02T05:02:19;17.10;99.90
19538;DHT22;9914;51.008;4.300;2022-09-02T05:04:48;17.00;99.90
19538;DHT22;9914;51.008;4.300;2022-09-02T05:07:18;17.00;99.90
19538;DHT22;9914;51.008;4.300;2022-09-02T05:09:45;17.00;99.90
19538;DHT22;9914;51.008;4.300;2022-09-02T05:12:19;16.90;99.90
19538;DHT22;9914;51.008;4.300;2022-09-02T05:14:48;16.80;99.90
19538;DHT22;9914;51.008;4.300;2022-09-02T05:17:14;16.90;99.90
19538;DHT22;9914;51.008;4.300;2022-09-02T05:19:40;16.90;99.90
19538;DHT22;9914;51.008;4.300;2022-09-02T05:22:06;16.90;99.90
19538;DHT22;9914;51.008;4.300;2022-09-02T05:24:33;16.90;99.90
19538;DHT22;9914;51.008;4.300;2022-09-02T05:26:59;16.90;99.90
19538;DHT22;9914;51.008;4.300;2022-09-02T05:29:25;16.90;99.90
19538;DHT22;9914;51.008;4.300;2022-09-02T05:31:51;17.00;99.90
19538;DHT22;9914;51.008;4.300;2022-09-02T05:34:17;16.90;99.90
19538;DHT22;9914;51.008;4.300;2022-09-02T05:36:43;16.90;99.90
19538;DHT22;9914;51.008;4.300;2022-09-02T05:39:09;16.90;99.90
19538;DHT22;9914;51.008;4.300;2022-09-02T05:41:36;17.00;99.90
19538;DHT22;9914;51.008;4.300;2022-09-02T05:44:03;17.00;99.90
19538;DHT22;9914;51.008;4.300;2022-09-02T05:46:29;17.10;99.90
19538;DHT22;9914;51.008;4.300;2022-09-02T05:48:56;17.20;99.90
19538;DHT22;9914;51.008;4.300;2022-09-02T05:52:04;17.20;99.90
19538;DHT22;9914;51.008;4.300;2022-09-02T05:54:33;17.10;99.90
19538;DHT22;9914;51.008;4.300;2022-09-02T05:57:05;17.00;99.90
19538;DHT22;9914;51.008;4.300;2022-09-02T05:59:35;17.10;99.90
19538;DHT22;9914;51.008;4.300;2022-09-02T06:02:07;17.40;99.90
19538;DHT22;9914;51.008;4.300;2022-09-02T06:04:38;17.50;99.90
19538;DHT22;9914;51.008;4.300;2022-09-02T06:07:05;17.60;99.90
19538;DHT22;9914;51.008;4.300;2022-09-02T06:09:32;17.80;99.90
19538;DHT22;9914;51.008;4.300;2022-09-02T06:11:58;17.80;99.90
19538;DHT22;9914;51.008;4.300;2022-09-02T06:14:25;17.90;99.90
19538;DHT22;9914;51.008;4.300;2022-09-02T06:16:54;18.00;99.90
19538;DHT22;9914;51.008;4.300;2022-09-02T06:19:21;18.00;99.90
19538;DHT22;9914;51.008;4.300;2022-09-02T06:21:48;18.20;99.90
19538;DHT22;9914;51.008;4.300;2022-09-02T06:24:13;18.40;99.90
19538;DHT22;9914;51.008;4.300;2022-09-02T06:26:41;18.50;99.90
19538;DHT22;9914;51.008;4.300;2022-09-02T06:29:08;18.40;99.90
19538;DHT22;9914;51.008;4.300;2022-09-02T06:31:36;18.50;99.90
19538;DHT22;9914;51.008;4.300;2022-09-02T06:34:02;18.40;99.90
19538;DHT22;9914;51.008;4.300;2022-09-02T06:36:29;18.50;99.90
19538;DHT22;9914;51.008;4.300;2022-09-02T06:38:56;18.60;99.90
19538;DHT22;9914;51.008;4.300;2022-09-02T06:41:29;18.70;99.90
19538;DHT22;9914;51.008;4.300;2022-09-02T06:43:57;18.70;99.90
19538;DHT22;9914;51.008;4.300;2022-09-02T06:46:30;18.80;99.90
19538;DHT22;9914;51.008;4.300;2022-09-02T06:48:56;19.20;99.90
19538;DHT22;9914;51.008;4.300;2022-09-02T06:51:25;19.40;99.90
19538;DHT22;9914;51.008;4.300;2022-09-02T06:53:51;19.40;99.90
19538;DHT22;9914;51.008;4.300;2022-09-02T06:56:17;19.50;99.90
19538;DHT22;9914;51.008;4.300;2022-09-02T06:58:44;19.50;99.90
19538;DHT22;9914;51.008;4.300;2022-09-02T07:01:20;19.60;99.90
19538;DHT22;9914;51.008;4.300;2022-09-02T07:03:46;19.70;99.90
19538;DHT22;9914;51.008;4.300;2022-09-02T07:06:42;19.70;99.90
19538;DHT22;9914;51.008;4.300;2022-09-02T07:09:10;19.90;99.90
19538;DHT22;9914;51.008;4.300;2022-09-02T07:11:37;20.10;99.90
19538;DHT22;9914;51.008;4.300;2022-09-02T07:14:03;20.30;99.90
19538;DHT22;9914;51.008;4.300;2022-09-02T07:16:32;20.40;99.90
19538;DHT22;9914;51.008;4.300;2022-09-02T07:18:59;20.50;99.90
19538;DHT22;9914;51.008;4.300;2022-09-02T07:21:29;20.60;99.90
19538;DHT22;9914;51.008;4.300;2022-09-02T07:23:57;20.70;99.90
19538;DHT22;9914;51.008;4.300;2022-09-02T07:26:24;20.70;99.90
19538;DHT22;9914;51.008;4.300;2022-09-02T07:28:51;20.90;99.90
19538;DHT22;9914;51.008;4.300;2022-09-02T07:31:18;20.90;99.90
19538;DHT22;9914;51.008;4.300;2022-09-02T07:33:44;21.20;99.90
19538;DHT22;9914;51.008;4.300;2022-09-02T07:36:11;21.30;99.90
19538;DHT22;9914;51.008;4.300;2022-09-02T07:38:39;21.40;99.90
19538;DHT22;9914;51.008;4.300;2022-09-02T07:41:11;21.50;99.90
19538;DHT22;9914;51.008;4.300;2022-09-02T07:43:38;21.50;99.90
19538;DHT22;9914;51.008;4.300;2022-09-02T07:46:06;21.70;99.90
19538;DHT22;9914;51.008;4.300;2022-09-02T07:48:32;21.80;99.90
19538;DHT22;9914;51.008;4.300;2022-09-02T07:51:00;21.90;99.90
19538;DHT22;9914;51.008;4.300;2022-09-02T07:53:26;22.00;99.90
19538;DHT22;9914;51.008;4.300;2022-09-02T07:55:52;22.10;99.90
19538;DHT22;9914;51.008;4.300;2022-09-02T07:58:19;22.30;99.90
19538;DHT22;9914;51.008;4.300;2022-09-02T08:00:47;22.30;99.90
19538;DHT22;9914;51.008;4.300;2022-09-02T08:03:14;22.30;99.90
19538;DHT22;9914;51.008;4.300;2022-09-02T08:05:39;22.40;99.90
19538;DHT22;9914;51.008;4.300;2022-09-02T08:08:06;22.70;99.90
19538;DHT22;9914;51.008;4.300;2022-09-02T08:10:32;22.90;99.90
19538;DHT22;9914;51.008;4.300;2022-09-02T08:12:58;23.20;99.90
19538;DHT22;9914;51.008;4.300;2022-09-02T08:15:29;23.20;99.90
19538;DHT22;9914;51.008;4.300;2022-09-02T08:17:56;23.20;99.90
19538;DHT22;9914;51.008;4.300;2022-09-02T08:20:22;23.50;99.90
19538;DHT22;9914;51.008;4.300;2022-09-02T08:22:48;23.80;99.90
19538;DHT22;9914;51.008;4.300;2022-09-02T08:25:14;23.90;99.90
19538;DHT22;9914;51.008;4.300;2022-09-02T08:27:43;24.10;99.90
19538;DHT22;9914;51.008;4.300;2022-09-02T08:30:15;24.00;99.90
19538;DHT22;9914;51.008;4.300;2022-09-02T08:32:41;23.80;99.90
19538;DHT22;9914;51.008;4.300;2022-09-02T08:35:08;23.90;99.90
19538;DHT22;9914;51.008;4.300;2022-09-02T08:37:35;24.00;99.90
19538;DHT22;9914;51.008;4.300;2022-09-02T08:40:03;24.20;99.90
19538;DHT22;9914;51.008;4.300;2022-09-02T08:42:45;24.40;99.90
19538;DHT22;9914;51.008;4.300;2022-09-02T08:45:40;24.20;99.90
19538;DHT22;9914;51.008;4.300;2022-09-02T08:51:09;24.30;99.90
19538;DHT22;9914;51.008;4.300;2022-09-02T08:54:04;24.70;99.90
19538;DHT22;9914;51.008;4.300;2022-09-02T08:56:32;24.80;99.90
19538;DHT22;9914;51.008;4.300;2022-09-02T08:58:58;24.70;99.90
19538;DHT22;9914;51.008;4.300;2022-09-02T09:01:54;24.80;99.90
19538;DHT22;9914;51.008;4.300;2022-09-02T09:04:39;25.00;99.90
19538;DHT22;9914;51.008;4.300;2022-09-02T09:12:58;25.40;99.90
19538;DHT22;9914;51.008;4.300;2022-09-02T09:18:06;25.60;99.90
19538;DHT22;9914;51.008;4.300;2022-09-02T09:20:36;25.70;99.90
19538;DHT22;9914;51.008;4.300;2022-09-02T09:23:18;25.80;99.90
19538;DHT22;9914;51.008;4.300;2022-09-02T09:25:47;25.90;99.90
19538;DHT22;9914;51.008;4.300;2022-09-02T09:28:16;26.10;99.90
19538;DHT22;9914;51.008;4.300;2022-09-02T09:30:41;26.10;99.90
19538;DHT22;9914;51.008;4.300;2022-09-02T09:33:09;26.20;99.90
19538;DHT22;9914;51.008;4.300;2022-09-02T09:38:12;26.70;99.90
19538;DHT22;9914;51.008;4.300;2022-09-02T09:40:39;26.90;99.90
19538;DHT22;9914;51.008;4.300;2022-09-02T09:45:34;27.00;99.90
19538;DHT22;9914;51.008;4.300;2022-09-02T09:50:48;26.80;99.90
19538;DHT22;9914;51.008;4.300;2022-09-02T09:53:34;26.90;99.90
19538;DHT22;9914;51.008;4.300;2022-09-02T09:56:01;26.80;99.90
19538;DHT22;9914;51.008;4.300;2022-09-02T09:58:50;26.90;99.90
19538;DHT22;9914;51.008;4.300;2022-09-02T10:06:47;27.30;99.90
19538;DHT22;9914;51.008;4.300;2022-09-02T10:11:39;27.70;99.90
19538;DHT22;9914;51.008;4.300;2022-09-02T10:14:20;27.80;99.90
19538;DHT22;9914;51.008;4.300;2022-09-02T10:18:06;27.70;99.90
19538;DHT22;9914;51.008;4.300;2022-09-02T10:31:04;28.30;99.90
19538;DHT22;9914;51.008;4.300;2022-09-02T10:33:55;28.10;99.90
19538;DHT22;9914;51.008;4.300;2022-09-02T10:42:52;28.30;99.90
19538;DHT22;9914;51.008;4.300;2022-09-02T10:50:49;28.40;99.90
19538;DHT22;9914;51.008;4.300;2022-09-02T10:53:36;28.00;99.90
19538;DHT22;9914;51.008;4.300;2022-09-02T10:56:13;28.00;99.90
19538;DHT22;9914;51.008;4.300;2022-09-02T10:58:49;28.00;99.90
19538;DHT22;9914;51.008;4.300;2022-09-02T11:01:34;27.80;99.90
19538;DHT22;9914;51.008;4.300;2022-09-02T11:06:40;27.50;99.90
19538;DHT22;9914;51.008;4.300;2022-09-02T11:12:06;28.00;99.90
19538;DHT22;9914;51.008;4.300;2022-09-02T11:17:41;27.80;99.90
19538;DHT22;9914;51.008;4.300;2022-09-02T11:20:27;27.70;99.90
19538;DHT22;9914;51.008;4.300;2022-09-02T11:26:52;28.20;99.90
19538;DHT22;9914;51.008;4.300;2022-09-02T11:29:20;28.30;99.80
19538;DHT22;9914;51.008;4.300;2022-09-02T11:31:52;28.30;99.70
19538;DHT22;9914;51.008;4.300;2022-09-02T11:37:08;28.60;99.20
19538;DHT22;9914;51.008;4.300;2022-09-02T11:39:39;28.80;97.50
19538;DHT22;9914;51.008;4.300;2022-09-02T11:42:50;28.60;98.10
19538;DHT22;9914;51.008;4.300;2022-09-02T11:53:41;29.10;96.60
19538;DHT22;9914;51.008;4.300;2022-09-02T11:56:12;29.20;96.40
19538;DHT22;9914;51.008;4.300;2022-09-02T11:58:43;29.30;95.90
19538;DHT22;9914;51.008;4.300;2022-09-02T12:01:30;29.40;95.30
19538;DHT22;9914;51.008;4.300;2022-09-02T12:06:35;29.60;95.10
19538;DHT22;9914;51.008;4.300;2022-09-02T12:09:04;29.50;94.70
19538;DHT22;9914;51.008;4.300;2022-09-02T12:11:43;29.60;94.30
19538;DHT22;9914;51.008;4.300;2022-09-02T12:17:07;29.90;93.80
19538;DHT22;9914;51.008;4.300;2022-09-02T12:19:42;30.00;93.60
19538;DHT22;9914;51.008;4.300;2022-09-02T12:24:52;29.70;94.30
19538;DHT22;9914;51.008;4.300;2022-09-02T12:27:37;29.90;94.30
19538;DHT22;9914;51.008;4.300;2022-09-02T12:30:10;29.90;93.30
19538;DHT22;9914;51.008;4.300;2022-09-02T12:35:47;30.10;93.20
19538;DHT22;9914;51.008;4.300;2022-09-02T12:43:35;30.90;92.10
19538;DHT22;9914;51.008;4.300;2022-09-02T12:46:32;30.40;92.40
19538;DHT22;9914;51.008;4.300;2022-09-02T12:51:52;29.70;92.40
19538;DHT22;9914;51.008;4.300;2022-09-02T12:54:33;29.50;92.30
19538;DHT22;9914;51.008;4.300;2022-09-02T12:57:00;29.50;92.30
19538;DHT22;9914;51.008;4.300;2022-09-02T12:59:31;29.60;92.30
19538;DHT22;9914;51.008;4.300;2022-09-02T13:33:36;31.40;89.40
19538;DHT22;9914;51.008;4.300;2022-09-02T13:36:02;31.40;88.30
19538;DHT22;9914;51.008;4.300;2022-09-02T13:38:29;31.50;85.70
19538;DHT22;9914;51.008;4.300;2022-09-02T13:40:56;31.60;85.70
19538;DHT22;9914;51.008;4.300;2022-09-02T13:43:23;31.70;84.80
19538;DHT22;9914;51.008;4.300;2022-09-02T13:45:52;31.80;86.90
19538;DHT22;9914;51.008;4.300;2022-09-02T13:48:21;31.90;86.40
19538;DHT22;9914;51.008;4.300;2022-09-02T13:50:49;32.00;86.20
19538;DHT22;9914;51.008;4.300;2022-09-02T13:55:54;32.00;84.90
19538;DHT22;9914;51.008;4.300;2022-09-02T13:58:34;31.90;85.70
19538;DHT22;9914;51.008;4.300;2022-09-02T14:01:31;32.00;85.60
19538;DHT22;9914;51.008;4.300;2022-09-02T14:04:01;32.10;84.80
19538;DHT22;9914;51.008;4.300;2022-09-02T14:06:32;31.90;83.60
19538;DHT22;9914;51.008;4.300;2022-09-02T14:09:02;32.00;84.60
19538;DHT22;9914;51.008;4.300;2022-09-02T14:11:36;31.60;84.70
19538;DHT22;9914;51.008;4.300;2022-09-02T14:14:03;31.80;83.40
19538;DHT22;9914;51.008;4.300;2022-09-02T14:16:34;32.10;83.30
19538;DHT22;9914;51.008;4.300;2022-09-02T14:21:57;31.30;84.20
19538;DHT22;9914;51.008;4.300;2022-09-02T14:24:36;31.80;85.00
19538;DHT22;9914;51.008;4.300;2022-09-02T14:27:16;32.10;83.40
19538;DHT22;9914;51.008;4.300;2022-09-02T14:29:44;32.50;83.80
19538;DHT22;9914;51.008;4.300;2022-09-02T14:34:40;33.00;81.40
19538;DHT22;9914;51.008;4.300;2022-09-02T14:37:22;32.90;81.10
19538;DHT22;9914;51.008;4.300;2022-09-02T14:42:26;33.30;79.40
19538;DHT22;9914;51.008;4.300;2022-09-02T14:44:52;33.20;78.90
19538;DHT22;9914;51.008;4.300;2022-09-02T14:47:19;33.00;78.50
19538;DHT22;9914;51.008;4.300;2022-09-02T14:49:48;32.90;79.30
19538;DHT22;9914;51.008;4.300;2022-09-02T14:52:27;32.60;79.00
19538;DHT22;9914;51.008;4.300;2022-09-02T14:54:55;32.00;79.10
19538;DHT22;9914;51.008;4.300;2022-09-02T14:57:34;31.80;79.40
19538;DHT22;9914;51.008;4.300;2022-09-02T15:00:06;31.90;79.70
19538;DHT22;9914;51.008;4.300;2022-09-02T15:02:36;32.20;81.20
19538;DHT22;9914;51.008;4.300;2022-09-02T15:05:07;32.40;80.20
19538;DHT22;9914;51.008;4.300;2022-09-02T15:07:33;32.50;79.20
19538;DHT22;9914;51.008;4.300;2022-09-02T15:09:59;32.40;78.80
19538;DHT22;9914;51.008;4.300;2022-09-02T15:12:31;32.20;78.40
19538;DHT22;9914;51.008;4.300;2022-09-02T15:14:57;32.00;78.90
19538;DHT22;9914;51.008;4.300;2022-09-02T15:17:23;32.10;78.00
19538;DHT22;9914;51.008;4.300;2022-09-02T15:19:49;32.30;78.00
19538;DHT22;9914;51.008;4.300;2022-09-02T15:22:16;32.30;79.20
19538;DHT22;9914;51.008;4.300;2022-09-02T15:24:42;32.10;78.20
19538;DHT22;9914;51.008;4.300;2022-09-02T15:27:11;32.00;77.70
19538;DHT22;9914;51.008;4.300;2022-09-02T15:29:37;31.80;78.00
19538;DHT22;9914;51.008;4.300;2022-09-02T15:32:03;31.50;79.00
19538;DHT22;9914;51.008;4.300;2022-09-02T15:34:30;31.40;80.40
19538;DHT22;9914;51.008;4.300;2022-09-02T15:36:56;31.00;80.60
19538;DHT22;9914;51.008;4.300;2022-09-02T15:39:24;30.90;81.10
19538;DHT22;9914;51.008;4.300;2022-09-02T15:41:50;30.80;80.80
19538;DHT22;9914;51.008;4.300;2022-09-02T15:44:17;30.80;80.70
19538;DHT22;9914;51.008;4.300;2022-09-02T15:46:43;30.80;80.70
19538;DHT22;9914;51.008;4.300;2022-09-02T15:49:12;30.90;80.50
19538;DHT22;9914;51.008;4.300;2022-09-02T15:51:38;31.00;80.70
19538;DHT22;9914;51.008;4.300;2022-09-02T15:54:11;31.00;80.80
19538;DHT22;9914;51.008;4.300;2022-09-02T15:56:39;31.00;80.10
19538;DHT22;9914;51.008;4.300;2022-09-02T15:59:14;31.00;79.20
19538;DHT22;9914;51.008;4.300;2022-09-02T16:01:45;30.80;79.80
19538;DHT22;9914;51.008;4.300;2022-09-02T16:04:12;31.10;79.90
19538;DHT22;9914;51.008;4.300;2022-09-02T16:06:40;31.20;79.80
19538;DHT22;9914;51.008;4.300;2022-09-02T16:09:08;31.10;78.80
19538;DHT22;9914;51.008;4.300;2022-09-02T16:11:36;31.10;79.00
19538;DHT22;9914;51.008;4.300;2022-09-02T16:14:03;31.00;79.00
19538;DHT22;9914;51.008;4.300;2022-09-02T16:16:30;31.00;79.40
19538;DHT22;9914;51.008;4.300;2022-09-02T16:18:56;30.90;78.80
19538;DHT22;9914;51.008;4.300;2022-09-02T16:21:22;30.90;78.80
19538;DHT22;9914;51.008;4.300;2022-09-02T16:23:48;30.80;78.80
19538;DHT22;9914;51.008;4.300;2022-09-02T16:26:21;30.40;79.90
19538;DHT22;9914;51.008;4.300;2022-09-02T16:28:47;30.10;80.90
19538;DHT22;9914;51.008;4.300;2022-09-02T16:31:15;29.90;81.40
19538;DHT22;9914;51.008;4.300;2022-09-02T16:33:42;29.90;81.50
19538;DHT22;9914;51.008;4.300;2022-09-02T16:36:09;29.70;82.10
19538;DHT22;9914;51.008;4.300;2022-09-02T16:38:36;29.60;82.30
19538;DHT22;9914;51.008;4.300;2022-09-02T16:41:02;29.50;82.60
19538;DHT22;9914;51.008;4.300;2022-09-02T16:43:32;29.30;82.80
19538;DHT22;9914;51.008;4.300;2022-09-02T16:45:59;29.10;83.70
19538;DHT22;9914;51.008;4.300;2022-09-02T16:48:30;28.90;83.90
19538;DHT22;9914;51.008;4.300;2022-09-02T16:51:00;28.90;84.00
19538;DHT22;9914;51.008;4.300;2022-09-02T16:53:26;28.80;84.40
19538;DHT22;9914;51.008;4.300;2022-09-02T16:55:52;28.70;84.70
19538;DHT22;9914;51.008;4.300;2022-09-02T16:58:17;28.60;85.10
19538;DHT22;9914;51.008;4.300;2022-09-02T17:00:43;28.70;85.40
19538;DHT22;9914;51.008;4.300;2022-09-02T17:03:11;28.60;85.90
19538;DHT22;9914;51.008;4.300;2022-09-02T17:05:37;28.60;86.00
19538;DHT22;9914;51.008;4.300;2022-09-02T17:08:04;28.40;86.20
19538;DHT22;9914;51.008;4.300;2022-09-02T17:10:31;28.40;86.70
19538;DHT22;9914;51.008;4.300;2022-09-02T17:12:57;28.30;87.10
19538;DHT22;9914;51.008;4.300;2022-09-02T17:15:24;28.20;87.50
19538;DHT22;9914;51.008;4.300;2022-09-02T17:17:51;28.20;88.60
19538;DHT22;9914;51.008;4.300;2022-09-02T17:20:16;28.20;87.90
19538;DHT22;9914;51.008;4.300;2022-09-02T17:22:42;28.00;88.30
19538;DHT22;9914;51.008;4.300;2022-09-02T17:25:09;28.00;88.70
19538;DHT22;9914;51.008;4.300;2022-09-02T17:27:35;27.90;88.50
19538;DHT22;9914;51.008;4.300;2022-09-02T17:30:03;27.90;88.60
19538;DHT22;9914;51.008;4.300;2022-09-02T17:32:29;27.90;89.60
19538;DHT22;9914;51.008;4.300;2022-09-02T17:34:55;27.90;88.90
19538;DHT22;9914;51.008;4.300;2022-09-02T17:37:20;27.80;89.50
19538;DHT22;9914;51.008;4.300;2022-09-02T17:39:47;27.70;89.50
19538;DHT22;9914;51.008;4.300;2022-09-02T17:42:14;27.80;89.40
19538;DHT22;9914;51.008;4.300;2022-09-02T17:44:39;27.70;89.50
19538;DHT22;9914;51.008;4.300;2022-09-02T17:47:17;27.50;90.00
19538;DHT22;9914;51.008;4.300;2022-09-02T17:49:44;27.40;90.10
19538;DHT22;9914;51.008;4.300;2022-09-02T17:52:12;27.40;90.30
19538;DHT22;9914;51.008;4.300;2022-09-02T17:54:39;27.30;90.40
19538;DHT22;9914;51.008;4.300;2022-09-02T18:05:29;27.10;91.00
19538;DHT22;9914;51.008;4.300;2022-09-02T18:10:54;27.00;91.00
19538;DHT22;9914;51.008;4.300;2022-09-02T18:18:30;26.80;91.30
19538;DHT22;9914;51.008;4.300;2022-09-02T18:21:03;26.80;91.30
19538;DHT22;9914;51.008;4.300;2022-09-02T18:42:26;26.10;92.00
19538;DHT22;9914;51.008;4.300;2022-09-02T18:45:07;26.20;92.00
19538;DHT22;9914;51.008;4.300;2022-09-02T18:47:56;26.30;91.90
19538;DHT22;9914;51.008;4.300;2022-09-02T18:50:36;26.10;92.00